createdAt,value
2019-03-12T00:00:14.949Z,20.90
2019-03-12T00:02:43.619Z,14.43
2019-03-12T00:05:12.759Z,13.37
2019-03-12T00:07:41.342Z,14.57
2019-03-12T00:10:10.544Z,13.47
2019-03-12T00:12:39.124Z,15.17
2019-03-12T00:15:08.332Z,13.73
2019-03-12T00:17:38.447Z,10.90
2019-03-12T00:20:08.450Z,10.47
2019-03-12T00:22:38.071Z,14.97
2019-03-12T00:25:07.705Z,12.53
2019-03-12T00:27:36.542Z,16.20
2019-03-12T00:30:08.766Z,16.47
2019-03-12T00:32:38.646Z,13.07
2019-03-12T00:35:08.634Z,16.97
2019-03-12T00:37:37.213Z,14.33
2019-03-12T00:40:08.218Z,15.20
2019-03-12T00:42:36.822Z,14.47
2019-03-12T00:45:08.288Z,15.17
2019-03-12T00:47:36.864Z,20.90
2019-03-12T00:50:07.844Z,16.90
2019-03-12T00:52:36.437Z,16.87
2019-03-12T00:55:06.228Z,16.40
2019-03-12T00:57:34.738Z,10.40
2019-03-12T01:00:05.340Z,16.63
2019-03-12T01:02:34.002Z,17.83
2019-03-12T01:05:03.243Z,12.30
2019-03-12T01:07:31.821Z,17.37
2019-03-12T01:10:01.930Z,20.07
2019-03-12T01:12:30.774Z,17.40
2019-03-12T01:14:59.342Z,15.27
2019-03-12T01:17:27.934Z,21.67
2019-03-12T01:19:56.494Z,16.70
2019-03-12T01:22:25.082Z,19.27
2019-03-12T01:24:53.652Z,15.30
2019-03-12T01:27:22.246Z,19.57
2019-03-12T01:29:50.806Z,16.50
2019-03-12T01:32:19.950Z,22.27
2019-03-12T01:34:48.517Z,22.77
2019-03-12T01:37:17.026Z,26.70
2019-03-12T01:39:45.582Z,13.97
2019-03-12T01:42:14.426Z,23.70
2019-03-12T01:44:42.988Z,19.43
2019-03-12T01:47:11.580Z,20.77
2019-03-12T01:49:41.585Z,18.00
2019-03-12T01:52:11.441Z,22.97
2019-03-12T01:54:39.934Z,19.77
2019-03-12T01:57:09.023Z,17.97
2019-03-12T01:59:39.422Z,14.93
2019-03-12T02:02:08.089Z,16.30
2019-03-12T02:04:36.573Z,20.70
2019-03-12T02:07:05.435Z,15.87
2019-03-12T02:09:34.133Z,25.00
2019-03-12T02:12:02.714Z,18.33
2019-03-12T02:14:31.273Z,31.03
2019-03-12T02:17:00.024Z,16.47
2019-03-12T02:19:28.855Z,14.33
2019-03-12T02:21:57.376Z,17.50
2019-03-12T02:24:25.925Z,18.97
2019-03-12T02:26:54.433Z,16.47
2019-03-12T02:29:23.088Z,18.90
2019-03-12T02:31:53.233Z,18.53
2019-03-12T02:34:22.958Z,15.17
2019-03-12T02:36:51.522Z,13.60
2019-03-12T02:39:20.276Z,20.67
2019-03-12T02:41:48.846Z,16.13
2019-03-12T02:44:17.501Z,21.10
2019-03-12T02:46:46.334Z,17.70
2019-03-12T02:49:15.925Z,16.40
2019-03-12T02:51:45.059Z,13.90
2019-03-12T02:54:13.642Z,16.23
2019-03-12T02:56:42.233Z,20.67
2019-03-12T02:59:10.811Z,15.70
2019-03-12T03:01:39.368Z,20.77
2019-03-12T03:04:07.958Z,15.53
2019-03-12T03:06:49.888Z,15.30
2019-03-12T03:09:18.611Z,22.40
2019-03-12T03:11:50.649Z,19.10
2019-03-12T03:14:28.748Z,15.37
2019-03-12T03:16:57.381Z,17.80
2019-03-12T03:19:27.316Z,17.87
2019-03-12T03:21:55.900Z,21.80
2019-03-12T03:24:24.478Z,20.57
2019-03-12T03:26:54.932Z,29.13
2019-03-12T03:29:23.515Z,35.97
2019-03-12T03:31:52.099Z,22.37
2019-03-12T03:34:27.331Z,18.40
2019-03-12T03:36:53.252Z,25.27
2019-03-12T03:39:23.750Z,21.93
2019-03-12T03:41:52.323Z,20.40
2019-03-12T03:44:20.997Z,24.00
2019-03-12T03:46:49.857Z,23.37
2019-03-12T03:49:18.443Z,27.13
2019-03-12T03:51:48.507Z,23.93
2019-03-12T03:54:17.087Z,26.60
2019-03-12T03:56:46.143Z,25.43
2019-03-12T03:59:14.778Z,26.27
2019-03-12T04:01:43.552Z,32.77
2019-03-12T04:04:12.139Z,24.77
2019-03-12T04:06:42.050Z,23.33
2019-03-12T04:09:11.083Z,28.73
2019-03-12T04:11:39.638Z,30.63
2019-03-12T04:14:08.313Z,28.50
2019-03-12T04:16:36.859Z,24.57
2019-03-12T04:19:05.723Z,23.83
2019-03-12T04:21:34.275Z,25.77
2019-03-12T04:24:02.855Z,23.97
2019-03-12T04:26:31.435Z,26.00
2019-03-12T04:29:00.114Z,26.53
2019-03-12T04:31:28.708Z,24.53
2019-03-12T04:34:03.032Z,27.47
2019-03-12T04:36:33.067Z,24.67
2019-03-12T04:39:01.729Z,26.63
2019-03-12T04:41:30.254Z,24.93
2019-03-12T04:43:59.864Z,25.83
2019-03-12T04:46:28.387Z,21.43
2019-03-12T04:48:57.280Z,24.30
2019-03-12T04:51:29.751Z,21.33
2019-03-12T04:53:58.407Z,22.63
2019-03-12T04:56:27.333Z,22.33
2019-03-12T04:58:55.890Z,24.87
2019-03-12T05:01:24.453Z,21.47
2019-03-12T05:03:53.167Z,21.63
2019-03-12T05:06:22.019Z,22.17
2019-03-12T05:08:51.232Z,26.57
2019-03-12T05:11:19.839Z,18.73
2019-03-12T05:13:51.506Z,21.87
2019-03-12T05:16:20.089Z,20.23
2019-03-12T05:18:48.674Z,20.70
2019-03-12T05:21:17.244Z,15.83
2019-03-12T05:23:45.803Z,21.97
2019-03-12T05:26:16.448Z,18.53
2019-03-12T05:28:44.973Z,17.10
2019-03-12T05:31:13.479Z,18.13
2019-03-12T05:33:42.046Z,15.10
2019-03-12T05:36:12.322Z,18.87
2019-03-12T05:38:41.390Z,17.70
2019-03-12T05:41:12.277Z,16.43
2019-03-12T05:43:40.596Z,18.17
2019-03-12T05:46:09.190Z,14.73
2019-03-12T05:48:37.793Z,17.70
2019-03-12T05:51:06.362Z,16.90
2019-03-12T05:53:51.654Z,18.00
2019-03-12T05:56:20.394Z,16.77
2019-03-12T05:58:48.977Z,19.10
2019-03-12T06:01:17.535Z,18.27
2019-03-12T06:03:46.908Z,23.40
2019-03-12T06:06:15.515Z,15.63
2019-03-12T06:08:45.104Z,21.10
2019-03-12T06:11:13.858Z,16.17
2019-03-12T06:13:42.351Z,19.57
2019-03-12T06:16:12.302Z,18.83
2019-03-12T06:18:40.874Z,22.53
2019-03-12T06:21:09.403Z,13.23
2019-03-12T06:23:37.979Z,16.47
2019-03-12T06:26:07.074Z,12.63
2019-03-12T06:28:37.279Z,16.13
2019-03-12T06:31:27.189Z,18.50
2019-03-12T06:34:00.363Z,17.43
2019-03-12T06:36:42.671Z,15.50
2019-03-12T06:39:24.334Z,18.27
2019-03-12T06:41:54.558Z,17.17
2019-03-12T06:44:30.457Z,20.30
2019-03-12T06:47:00.947Z,18.17
2019-03-12T06:49:31.431Z,16.77
2019-03-12T06:52:13.770Z,20.57
2019-03-12T06:54:44.454Z,19.87
2019-03-12T06:57:17.983Z,18.17
2019-03-12T06:59:54.052Z,20.77
2019-03-12T07:02:26.963Z,16.70
2019-03-12T07:05:13.579Z,15.77
2019-03-12T07:07:46.808Z,19.70
2019-03-12T07:10:19.852Z,11.83
2019-03-12T07:13:07.962Z,15.87
2019-03-12T07:15:38.181Z,14.27
2019-03-12T07:18:23.579Z,16.87
2019-03-12T07:20:53.804Z,13.50
2019-03-12T07:23:24.074Z,18.17
2019-03-12T07:25:56.776Z,12.57
2019-03-12T07:28:50.105Z,16.07
2019-03-12T07:31:16.730Z,13.77
2019-03-12T07:33:52.482Z,17.17
2019-03-12T07:36:34.207Z,16.17
2019-03-12T07:39:08.158Z,12.13
2019-03-12T07:41:54.531Z,16.57
2019-03-12T07:44:25.702Z,13.97
2019-03-12T07:47:04.421Z,17.07
2019-03-12T07:49:52.390Z,13.73
2019-03-12T07:52:34.431Z,12.07
2019-03-12T07:55:13.926Z,12.03
2019-03-12T07:57:47.538Z,20.37
2019-03-12T08:00:23.497Z,13.67
2019-03-12T08:02:56.537Z,12.83
2019-03-12T08:05:29.733Z,12.90
2019-03-12T08:07:59.975Z,13.80
2019-03-12T08:10:33.619Z,17.93
2019-03-12T08:13:15.431Z,18.03
2019-03-12T08:15:45.794Z,14.23
2019-03-12T08:18:30.841Z,15.63
2019-03-12T08:21:21.738Z,12.93
2019-03-12T08:23:50.501Z,21.10
2019-03-12T08:26:29.247Z,11.13
2019-03-12T08:28:59.438Z,14.23
2019-03-12T08:31:45.939Z,14.13
2019-03-12T08:34:16.419Z,13.70
2019-03-12T08:36:46.648Z,10.60
2019-03-12T08:39:32.887Z,13.37
2019-03-12T08:42:15.094Z,15.77
2019-03-12T08:44:46.747Z,14.97
2019-03-12T08:47:20.057Z,16.47
2019-03-12T08:49:51.719Z,14.67
2019-03-12T08:52:39.245Z,15.70
2019-03-12T08:55:24.076Z,18.57
2019-03-12T08:58:11.973Z,14.17
2019-03-12T09:00:46.953Z,13.13
2019-03-12T09:03:17.098Z,15.53
2019-03-12T09:05:53.736Z,14.33
2019-03-12T09:08:29.608Z,10.40
2019-03-12T09:10:59.841Z,17.90
2019-03-12T09:13:36.911Z,14.17
2019-03-12T09:16:09.969Z,16.33
2019-03-12T09:18:48.765Z,13.07
2019-03-12T09:21:34.421Z,10.03
2019-03-12T09:24:12.415Z,14.37
2019-03-12T09:26:48.693Z,15.27
2019-03-12T09:29:33.714Z,17.33
2019-03-12T09:32:22.438Z,12.63
2019-03-12T09:34:58.584Z,15.23
2019-03-12T09:37:29.489Z,10.33
2019-03-12T09:40:01.889Z,12.80
2019-03-12T09:42:49.916Z,15.30
2019-03-12T09:45:21.777Z,16.40
2019-03-12T09:48:11.418Z,15.00
2019-03-12T09:50:43.341Z,17.07
2019-03-12T09:53:17.735Z,12.27
2019-03-12T09:56:03.831Z,11.07
2019-03-12T09:58:38.274Z,10.77
2019-03-12T10:01:09.424Z,11.37
2019-03-12T10:03:58.737Z,8.20
2019-03-12T10:06:44.057Z,8.03
2019-03-12T10:09:25.700Z,12.40
2019-03-12T10:11:57.632Z,11.80
2019-03-12T10:14:33.630Z,11.07
2019-03-12T10:17:09.537Z,11.33
2019-03-12T10:19:42.494Z,12.47
2019-03-12T10:22:22.847Z,6.90
2019-03-12T10:25:01.473Z,6.90
2019-03-12T10:27:31.687Z,8.37
2019-03-12T10:30:04.821Z,13.47
2019-03-12T10:32:46.851Z,11.97
2019-03-12T10:35:17.150Z,12.77
2019-03-12T10:37:47.323Z,12.83
2019-03-12T10:40:35.643Z,12.77
2019-03-12T10:43:15.775Z,11.47
2019-03-12T10:45:50.548Z,12.77
2019-03-12T10:48:19.137Z,11.00
2019-03-12T10:50:49.005Z,11.13
2019-03-12T10:53:18.074Z,9.00
2019-03-12T10:55:46.655Z,12.17
2019-03-12T10:58:15.325Z,10.23
2019-03-12T11:00:45.161Z,12.43
2019-03-12T11:03:13.811Z,8.23
2019-03-12T11:05:46.146Z,11.37
2019-03-12T11:08:12.944Z,11.07
2019-03-12T11:10:41.825Z,13.27
2019-03-12T11:13:10.405Z,10.07
2019-03-12T11:15:38.896Z,8.13
2019-03-12T11:18:07.630Z,9.30
2019-03-12T11:20:36.198Z,32.53
2019-03-12T11:23:05.627Z,13.43
2019-03-12T11:25:34.597Z,9.83
2019-03-12T11:28:03.199Z,20.10
2019-03-12T11:30:32.874Z,10.00
2019-03-12T11:33:01.724Z,9.57
2019-03-12T11:35:39.044Z,15.63
2019-03-12T11:38:06.047Z,8.03
2019-03-12T11:40:38.541Z,10.73
2019-03-12T11:43:09.112Z,10.17
2019-03-12T11:45:39.834Z,12.00
2019-03-12T11:48:10.470Z,11.77
2019-03-12T11:50:41.682Z,11.20
2019-03-12T11:53:11.817Z,8.23
2019-03-12T11:55:40.342Z,9.70
2019-03-12T11:58:11.754Z,11.30
2019-03-12T12:00:43.377Z,13.37
2019-03-12T12:03:13.030Z,5.50
2019-03-12T12:05:43.086Z,7.47
2019-03-12T12:08:13.282Z,6.33
2019-03-12T12:10:42.977Z,6.73
2019-03-12T12:13:13.391Z,8.87
2019-03-12T12:15:42.762Z,8.73
2019-03-12T12:18:15.877Z,6.83
2019-03-12T12:20:45.878Z,7.60
2019-03-12T12:23:16.429Z,7.07
2019-03-12T12:25:46.488Z,5.93
2019-03-12T12:28:15.002Z,7.23
2019-03-12T12:30:44.926Z,8.87
2019-03-12T12:33:14.614Z,12.00
2019-03-12T12:35:43.451Z,6.67
2019-03-12T12:38:12.602Z,7.40
2019-03-12T12:40:44.022Z,9.37
2019-03-12T12:43:13.191Z,5.20
2019-03-12T12:45:41.847Z,4.40
2019-03-12T12:48:11.493Z,4.97
2019-03-12T12:50:40.914Z,6.63
2019-03-12T12:53:10.570Z,6.90
2019-03-12T12:55:39.540Z,8.73
2019-03-12T12:58:08.734Z,5.03
2019-03-12T13:00:38.481Z,4.53
2019-03-12T13:03:07.393Z,6.30
2019-03-12T13:05:35.978Z,7.43
2019-03-12T13:08:04.736Z,6.57
2019-03-12T13:10:34.735Z,8.77
2019-03-12T13:13:03.302Z,5.67
2019-03-12T13:15:31.879Z,7.03
2019-03-12T13:18:00.439Z,5.93
2019-03-12T13:20:29.021Z,7.60
2019-03-12T13:22:57.594Z,6.43
2019-03-12T13:25:26.969Z,8.03
2019-03-12T13:27:55.609Z,5.53
2019-03-12T13:30:25.162Z,5.90
2019-03-12T13:32:53.724Z,4.83
2019-03-12T13:35:23.043Z,6.90
2019-03-12T13:37:51.670Z,10.67
2019-03-12T13:40:24.802Z,7.40
2019-03-12T13:42:53.886Z,6.77
2019-03-12T13:45:26.432Z,4.27
2019-03-12T13:47:55.315Z,6.43
2019-03-12T13:50:24.327Z,7.60
2019-03-12T13:52:52.837Z,5.30
2019-03-12T13:55:22.515Z,10.17
2019-03-12T13:57:53.326Z,9.10
2019-03-12T14:00:26.142Z,5.40
2019-03-12T14:02:56.513Z,8.17
2019-03-12T14:05:25.166Z,7.50
2019-03-12T14:07:54.146Z,6.23
2019-03-12T14:10:24.810Z,4.33
2019-03-12T14:12:54.262Z,4.83
2019-03-12T14:15:36.568Z,5.30
2019-03-12T14:18:05.968Z,8.83
2019-03-12T14:20:52.443Z,7.70
2019-03-12T14:23:29.706Z,7.90
2019-03-12T14:26:00.186Z,6.40
2019-03-12T14:28:29.134Z,4.70
2019-03-12T14:30:58.780Z,10.80
2019-03-12T14:33:27.515Z,14.27
2019-03-12T14:35:56.266Z,9.77
2019-03-12T14:38:24.994Z,12.30
2019-03-12T14:40:53.934Z,23.93
2019-03-12T14:43:22.527Z,13.40
2019-03-12T14:45:52.073Z,12.20
2019-03-12T14:48:46.230Z,8.47
2019-03-12T14:51:35.730Z,8.27
2019-03-12T14:54:08.445Z,11.87
2019-03-12T14:56:38.702Z,9.47
2019-03-12T14:59:08.505Z,8.30
2019-03-12T15:01:37.070Z,7.77
2019-03-12T15:04:05.974Z,8.13
2019-03-12T15:06:35.378Z,10.50
2019-03-12T15:09:06.055Z,7.33
2019-03-12T15:11:34.732Z,7.37
2019-03-12T15:14:03.283Z,10.87
2019-03-12T15:16:33.768Z,13.20
2019-03-12T15:19:04.427Z,8.73
2019-03-12T15:21:33.374Z,11.30
2019-03-12T15:24:02.017Z,11.97
2019-03-12T15:26:30.596Z,5.23
2019-03-12T15:29:00.594Z,8.80
2019-03-12T15:31:29.249Z,10.27
2019-03-12T15:33:57.734Z,6.80
2019-03-12T15:36:28.098Z,9.50
2019-03-12T15:38:57.921Z,4.17
2019-03-12T15:41:28.796Z,6.10
2019-03-12T15:43:57.467Z,5.80
2019-03-12T15:46:26.056Z,9.70
2019-03-12T15:48:55.169Z,5.37
2019-03-12T15:51:23.788Z,7.20
2019-03-12T15:53:52.421Z,9.60
2019-03-12T15:56:21.006Z,3.53
2019-03-12T15:58:50.938Z,8.13
2019-03-12T16:03:54.563Z,5.60
2019-03-12T16:06:26.333Z,6.90
2019-03-12T16:08:57.447Z,9.33
2019-03-12T16:11:27.114Z,5.67
2019-03-12T16:13:57.406Z,10.27
2019-03-12T16:16:28.249Z,6.20
2019-03-12T16:18:58.166Z,10.27
2019-03-12T16:21:28.054Z,4.40
2019-03-12T16:23:57.085Z,8.90
2019-03-12T16:26:25.782Z,13.87
2019-03-12T16:28:55.881Z,7.70
2019-03-12T16:31:25.971Z,8.90
2019-03-12T16:33:54.846Z,6.70
2019-03-12T16:36:24.267Z,7.70
2019-03-12T16:38:52.902Z,8.73
2019-03-12T16:41:21.463Z,6.60
2019-03-12T16:43:50.585Z,6.67
2019-03-12T16:46:19.162Z,6.13
2019-03-12T16:48:47.651Z,9.57
2019-03-12T16:51:16.971Z,6.63
2019-03-12T16:53:45.537Z,8.23
2019-03-12T16:56:14.116Z,6.03
2019-03-12T16:58:42.623Z,6.40
2019-03-12T17:01:12.635Z,10.77
2019-03-12T17:03:42.487Z,7.20
2019-03-12T17:06:11.007Z,5.97
2019-03-12T17:08:39.897Z,6.80
2019-03-12T17:11:08.406Z,6.90
2019-03-12T17:13:37.053Z,13.30
2019-03-12T17:16:05.764Z,11.20
2019-03-12T17:18:35.895Z,11.37
2019-03-12T17:21:04.545Z,6.53
2019-03-12T17:23:33.026Z,9.10
2019-03-12T17:26:01.569Z,9.30
2019-03-12T17:28:30.140Z,7.33
2019-03-12T17:30:58.711Z,5.13
2019-03-12T17:33:27.767Z,6.87
2019-03-12T17:35:56.342Z,6.37
2019-03-12T17:38:24.911Z,6.50
2019-03-12T17:40:53.589Z,4.53
2019-03-12T17:43:22.736Z,5.07
2019-03-12T17:45:51.278Z,5.77
2019-03-12T17:48:20.875Z,4.47
2019-03-12T17:50:49.942Z,5.53
2019-03-12T17:53:19.893Z,10.97
2019-03-12T17:55:50.006Z,6.20
2019-03-12T17:58:18.829Z,3.57
2019-03-12T18:00:47.462Z,5.17
2019-03-12T18:03:16.360Z,7.07
2019-03-12T18:05:45.091Z,7.10
2019-03-12T18:08:15.131Z,6.70
2019-03-12T18:10:43.966Z,7.00
2019-03-12T18:13:12.553Z,7.27
2019-03-12T18:15:41.124Z,4.73
2019-03-12T18:18:09.689Z,4.97
2019-03-12T18:20:38.277Z,4.20
2019-03-12T18:23:06.859Z,4.23
2019-03-12T18:25:37.523Z,8.27
2019-03-12T18:28:09.171Z,3.13
2019-03-12T18:30:37.960Z,3.10
2019-03-12T18:33:07.605Z,3.10
2019-03-12T18:35:37.019Z,4.20
2019-03-12T18:38:06.009Z,3.40
2019-03-12T18:40:35.841Z,10.47
2019-03-12T18:43:05.083Z,8.47
2019-03-12T18:45:35.781Z,2.67
2019-03-12T18:48:04.695Z,5.97
2019-03-12T18:50:35.730Z,4.37
2019-03-12T18:53:05.697Z,3.83
2019-03-12T18:55:38.405Z,5.90
2019-03-12T18:58:08.068Z,9.97
2019-03-12T19:00:38.250Z,5.73
2019-03-12T19:03:06.905Z,4.57
2019-03-12T19:05:35.469Z,3.23
2019-03-12T19:08:04.316Z,6.63
2019-03-12T19:10:34.147Z,4.67
2019-03-12T19:13:07.115Z,4.23
2019-03-12T19:15:36.970Z,5.70
2019-03-12T19:18:07.665Z,3.83
2019-03-12T19:20:39.609Z,6.63
2019-03-12T19:23:08.188Z,2.90
2019-03-12T19:25:40.750Z,5.10
2019-03-12T19:28:11.657Z,4.47
2019-03-12T19:30:40.435Z,5.07
2019-03-12T19:33:14.806Z,4.93
2019-03-12T19:35:44.705Z,4.67
2019-03-12T19:38:14.979Z,2.70
2019-03-12T19:40:57.635Z,3.83
2019-03-12T19:43:27.877Z,5.77
2019-03-12T19:45:58.455Z,4.90
2019-03-12T19:48:27.313Z,4.67
2019-03-12T19:50:58.187Z,9.87
2019-03-12T19:53:26.794Z,4.53
2019-03-12T19:56:07.064Z,5.43
2019-03-12T19:58:36.687Z,5.90
2019-03-12T20:01:06.550Z,4.23
2019-03-12T20:03:35.203Z,4.53
2019-03-12T20:06:03.947Z,6.07
2019-03-12T20:08:32.633Z,5.73
2019-03-12T20:11:25.267Z,5.83
2019-03-12T20:14:25.561Z,6.03
2019-03-12T20:17:12.464Z,5.23
2019-03-12T20:19:54.145Z,9.87
2019-03-12T20:22:47.666Z,5.90
2019-03-12T20:25:29.055Z,10.93
2019-03-12T20:28:24.604Z,8.23
2019-03-12T20:31:15.317Z,8.00
2019-03-12T20:34:21.249Z,12.00
2019-03-12T20:37:16.671Z,12.20
2019-03-12T20:40:05.141Z,11.33
2019-03-12T20:42:54.717Z,7.83
2019-03-12T20:45:54.654Z,8.43
2019-03-12T20:48:45.437Z,11.77
2019-03-12T20:51:34.722Z,8.93
2019-03-12T20:54:22.400Z,7.87
2019-03-12T20:56:55.590Z,4.60
2019-03-12T21:00:01.927Z,4.60
2019-03-12T21:03:06.599Z,11.37
2019-03-12T21:05:46.103Z,5.37
2019-03-12T21:08:47.494Z,8.53
2019-03-12T21:11:53.141Z,7.63
2019-03-12T21:14:41.945Z,7.57
2019-03-12T21:17:33.010Z,4.10
2019-03-12T21:20:39.468Z,8.70
2019-03-12T21:23:38.249Z,8.77
2019-03-12T21:26:32.482Z,5.00
2019-03-12T21:29:25.554Z,5.73
2019-03-12T21:31:53.876Z,7.83
2019-03-12T21:34:24.544Z,5.20
2019-03-12T21:36:56.387Z,5.47
2019-03-12T21:39:24.893Z,5.37
2019-03-12T21:41:53.629Z,6.10
2019-03-12T21:44:23.702Z,6.03
2019-03-12T21:46:53.795Z,3.20
2019-03-12T21:49:22.378Z,3.60
2019-03-12T21:51:53.092Z,2.27
2019-03-12T21:54:22.271Z,2.70
2019-03-12T21:56:52.726Z,3.00
2019-03-12T21:59:21.309Z,2.43
2019-03-12T22:01:51.241Z,3.17
2019-03-12T22:04:21.730Z,2.57
2019-03-12T22:06:51.342Z,2.00
2019-03-12T22:09:20.214Z,2.57
2019-03-12T22:11:49.776Z,1.40
2019-03-12T22:14:18.930Z,2.87
2019-03-12T22:16:49.638Z,2.77
2019-03-12T22:19:18.871Z,1.87
2019-03-12T22:21:51.457Z,1.90
2019-03-12T22:24:23.296Z,3.47
2019-03-12T22:26:53.735Z,2.37
2019-03-12T22:29:23.598Z,2.13
2019-03-12T22:31:52.837Z,1.63
2019-03-12T22:34:21.679Z,1.90
2019-03-12T22:36:52.483Z,1.90
2019-03-12T22:39:21.144Z,2.17
2019-03-12T22:41:49.773Z,2.00
2019-03-12T22:44:19.640Z,2.00
2019-03-12T22:46:48.203Z,2.57
2019-03-12T22:49:18.347Z,2.40
2019-03-12T22:51:47.506Z,2.87
2019-03-12T22:54:16.101Z,3.10
2019-03-12T22:56:44.727Z,3.40
2019-03-12T22:59:15.795Z,5.37
2019-03-12T23:01:45.745Z,3.93
2019-03-12T23:04:15.092Z,3.80
2019-03-12T23:06:43.837Z,3.40
2019-03-12T23:09:12.729Z,4.90
2019-03-12T23:11:42.997Z,4.10
2019-03-12T23:14:11.890Z,3.97
2019-03-12T23:16:43.229Z,5.53
2019-03-12T23:19:14.260Z,6.27
2019-03-12T23:21:46.247Z,4.60
2019-03-12T23:24:14.915Z,4.37
2019-03-12T23:26:43.767Z,7.77
2019-03-12T23:29:12.679Z,5.90
2019-03-12T23:31:41.249Z,8.17
2019-03-12T23:34:11.784Z,5.87
2019-03-12T23:36:40.947Z,6.30
2019-03-12T23:39:10.008Z,6.80
2019-03-12T23:41:38.769Z,6.40
2019-03-12T23:44:07.412Z,7.17
2019-03-12T23:46:36.973Z,6.13
2019-03-12T23:49:07.077Z,6.27
2019-03-12T23:51:35.933Z,7.03
2019-03-12T23:54:04.612Z,6.73
2019-03-12T23:56:33.585Z,6.03
2019-03-12T23:59:03.112Z,6.00
